createdAt,value
2017-12-08T00:02:10.530Z,24.75
2017-12-08T00:04:38.518Z,21.35
2017-12-08T00:07:06.174Z,24.08
2017-12-08T00:09:33.759Z,28.30
2017-12-08T00:12:01.387Z,32.15
2017-12-08T00:14:28.955Z,31.40
2017-12-08T00:16:56.545Z,29.58
2017-12-08T00:19:24.172Z,21.42
2017-12-08T00:21:51.827Z,30.75
2017-12-08T00:24:19.496Z,32.47
2017-12-08T00:26:47.160Z,28.35
2017-12-08T00:29:14.836Z,23.90
2017-12-08T00:31:42.896Z,19.55
2017-12-08T00:34:10.472Z,29.48
2017-12-08T00:36:38.050Z,24.65
2017-12-08T00:39:05.683Z,30.92
2017-12-08T00:41:33.267Z,28.27
2017-12-08T00:44:00.904Z,29.02
2017-12-08T00:46:28.577Z,31.67
2017-12-08T00:48:56.241Z,23.98
2017-12-08T00:51:23.899Z,31.37
2017-12-08T00:53:51.471Z,31.45
2017-12-08T00:56:19.048Z,23.95
2017-12-08T00:58:46.684Z,25.33
2017-12-08T01:01:14.351Z,28.52
2017-12-08T01:03:42.018Z,33.08
2017-12-08T01:06:09.594Z,28.52
2017-12-08T01:08:37.183Z,29.15
2017-12-08T01:11:04.779Z,29.87
2017-12-08T01:13:32.358Z,32.85
2017-12-08T01:15:59.939Z,28.20
2017-12-08T01:18:27.620Z,34.03
2017-12-08T01:20:55.255Z,30.98
2017-12-08T01:23:22.919Z,34.75
2017-12-08T01:25:50.580Z,36.08
2017-12-08T01:28:18.173Z,25.08
2017-12-08T01:30:45.752Z,27.58
2017-12-08T01:33:13.367Z,27.60
2017-12-08T01:35:41.032Z,28.77
2017-12-08T01:38:08.615Z,30.15
2017-12-08T01:40:36.186Z,22.02
2017-12-08T01:43:03.783Z,27.17
2017-12-08T01:45:31.352Z,35.50
2017-12-08T01:47:59.128Z,28.02
2017-12-08T01:50:26.706Z,26.37
2017-12-08T01:52:54.278Z,30.00
2017-12-08T01:55:21.898Z,29.08
2017-12-08T01:57:49.480Z,24.48
2017-12-08T02:00:17.064Z,24.02
2017-12-08T02:02:44.702Z,24.65
2017-12-08T02:05:12.275Z,23.02
2017-12-08T02:07:39.846Z,27.05
2017-12-08T02:10:07.743Z,22.62
2017-12-08T02:12:35.380Z,27.40
2017-12-08T02:15:02.968Z,20.25
2017-12-08T02:17:30.584Z,24.85
2017-12-08T02:19:58.166Z,21.83
2017-12-08T02:22:25.823Z,19.83
2017-12-08T02:24:53.487Z,24.98
2017-12-08T02:27:21.051Z,21.70
2017-12-08T02:29:48.634Z,17.90
2017-12-08T02:32:16.279Z,25.95
2017-12-08T02:34:43.936Z,19.40
2017-12-08T02:37:11.508Z,20.12
2017-12-08T02:39:39.159Z,22.62
2017-12-08T02:42:06.742Z,23.02
2017-12-08T02:44:34.315Z,21.42
2017-12-08T02:47:01.943Z,18.02
2017-12-08T02:49:29.615Z,28.70
2017-12-08T02:51:57.273Z,26.42
2017-12-08T02:54:24.852Z,19.37
2017-12-08T02:56:52.503Z,26.52
2017-12-08T02:59:20.076Z,20.12
2017-12-08T03:01:47.659Z,21.67
2017-12-08T03:04:15.635Z,26.17
2017-12-08T03:06:43.268Z,24.10
2017-12-08T03:09:10.927Z,25.17
2017-12-08T03:11:38.587Z,23.02
2017-12-08T03:14:06.164Z,25.35
2017-12-08T03:16:33.799Z,22.58
2017-12-08T03:19:01.371Z,23.60
2017-12-08T03:21:29.046Z,21.80
2017-12-08T03:23:56.628Z,25.85
2017-12-08T03:26:24.268Z,23.70
2017-12-08T03:28:51.932Z,27.40
2017-12-08T03:31:19.598Z,25.12
2017-12-08T03:33:47.175Z,27.05
2017-12-08T03:36:14.742Z,22.35
2017-12-08T03:38:42.384Z,19.23
2017-12-08T03:41:10.043Z,22.50
2017-12-08T03:43:37.703Z,26.23
2017-12-08T03:46:05.356Z,21.55
2017-12-08T03:48:33.036Z,21.50
2017-12-08T03:51:00.602Z,22.75
2017-12-08T03:53:28.189Z,22.02
2017-12-08T03:55:55.823Z,19.35
2017-12-08T03:58:23.484Z,21.02
2017-12-08T04:00:51.055Z,26.15
2017-12-08T04:03:18.706Z,20.33
2017-12-08T04:05:46.283Z,28.02
2017-12-08T04:08:13.873Z,24.50
2017-12-08T04:10:41.507Z,19.37
2017-12-08T04:13:09.167Z,18.33
2017-12-08T04:15:36.739Z,20.90
2017-12-08T04:18:04.408Z,10.23
2017-12-08T04:20:31.976Z,11.38
2017-12-08T04:22:59.616Z,10.32
2017-12-08T04:25:27.282Z,12.27
2017-12-08T04:27:54.944Z,15.55
2017-12-08T04:30:22.612Z,16.83
2017-12-08T04:32:50.203Z,21.70
2017-12-08T04:35:17.826Z,12.35
2017-12-08T04:37:45.408Z,11.57
2017-12-08T04:40:12.991Z,14.30
2017-12-08T04:42:40.624Z,17.65
2017-12-08T04:45:08.289Z,10.63
2017-12-08T04:47:35.868Z,12.70
2017-12-08T04:50:03.512Z,9.25
2017-12-08T04:52:31.171Z,9.43
2017-12-08T04:54:58.760Z,9.55
2017-12-08T04:57:26.331Z,11.15
2017-12-08T04:59:53.971Z,4.75
2017-12-08T05:02:21.548Z,4.30
2017-12-08T05:04:49.175Z,5.47
2017-12-08T05:07:16.744Z,4.07
2017-12-08T05:09:44.324Z,4.30
2017-12-08T05:12:11.971Z,4.50
2017-12-08T05:14:39.548Z,2.08
2017-12-08T05:17:07.116Z,2.20
2017-12-08T05:19:34.768Z,2.45
2017-12-08T05:22:02.398Z,7.10
2017-12-08T05:24:30.079Z,3.10
2017-12-08T05:26:57.752Z,3.00
2017-12-08T05:29:25.327Z,3.67
2017-12-08T05:31:52.906Z,2.97
2017-12-08T05:34:20.536Z,3.00
2017-12-08T05:36:48.121Z,4.55
2017-12-08T05:39:15.760Z,4.05
2017-12-08T05:41:43.424Z,3.95
2017-12-08T05:44:11.087Z,3.35
2017-12-08T05:46:38.671Z,4.80
2017-12-08T05:49:06.235Z,5.32
2017-12-08T05:51:33.874Z,4.97
2017-12-08T05:54:01.537Z,3.00
2017-12-08T05:56:29.203Z,6.57
2017-12-08T05:58:56.868Z,3.37
2017-12-08T06:01:24.447Z,6.75
2017-12-08T06:03:52.091Z,3.08
2017-12-08T06:06:19.761Z,5.25
2017-12-08T06:08:47.336Z,4.05
2017-12-08T06:11:14.984Z,3.42
2017-12-08T06:13:42.551Z,6.87
2017-12-08T06:16:10.131Z,4.60
2017-12-08T06:18:37.750Z,2.62
2017-12-08T06:21:05.322Z,3.85
2017-12-08T06:23:32.996Z,3.67
2017-12-08T06:26:00.655Z,5.57
2017-12-08T06:28:28.228Z,3.25
2017-12-08T06:30:55.893Z,4.55
2017-12-08T06:33:23.463Z,2.90
2017-12-08T06:35:51.042Z,3.25
2017-12-08T06:38:19.489Z,3.35
2017-12-08T06:40:47.151Z,5.28
2017-12-08T06:43:14.728Z,4.37
2017-12-08T06:45:42.379Z,2.92
2017-12-08T06:48:10.035Z,3.05
2017-12-08T06:50:37.603Z,2.80
2017-12-08T06:53:05.265Z,2.55
2017-12-08T06:55:32.935Z,2.20
2017-12-08T06:58:00.516Z,4.32
2017-12-08T07:00:28.091Z,2.72
2017-12-08T07:02:55.723Z,2.40
2017-12-08T07:05:23.432Z,3.03
2017-12-08T07:07:51.041Z,2.65
2017-12-08T07:10:18.664Z,5.37
2017-12-08T07:12:46.248Z,3.35
2017-12-08T07:15:13.821Z,3.22
2017-12-08T07:17:41.398Z,5.20
2017-12-08T07:20:09.055Z,3.67
2017-12-08T07:22:36.645Z,4.00
2017-12-08T07:25:04.215Z,3.33
2017-12-08T07:27:31.828Z,4.65
2017-12-08T07:29:59.515Z,7.05
2017-12-08T07:32:27.172Z,2.58
2017-12-08T07:34:54.743Z,5.47
2017-12-08T07:37:22.399Z,5.00
2017-12-08T07:39:49.984Z,3.70
2017-12-08T07:42:17.630Z,5.60
2017-12-08T07:44:45.208Z,3.45
2017-12-08T07:47:12.789Z,2.87
2017-12-08T07:49:40.408Z,4.03
2017-12-08T07:52:07.985Z,4.45
2017-12-08T07:54:35.563Z,4.55
2017-12-08T07:57:03.196Z,5.68
2017-12-08T07:59:30.860Z,5.12
2017-12-08T08:01:58.435Z,3.95
2017-12-08T08:04:26.020Z,4.93
2017-12-08T08:06:53.644Z,6.57
2017-12-08T08:09:21.224Z,6.90
2017-12-08T08:11:48.867Z,5.93
2017-12-08T08:14:16.536Z,6.30
2017-12-08T08:16:44.103Z,5.45
2017-12-08T08:19:11.687Z,6.82
2017-12-08T08:21:39.320Z,4.22
2017-12-08T08:24:06.985Z,5.78
2017-12-08T08:26:34.655Z,4.05
2017-12-08T08:29:02.317Z,6.10
2017-12-08T08:31:29.974Z,4.87
2017-12-08T08:33:57.572Z,7.90
2017-12-08T08:36:25.144Z,5.57
2017-12-08T08:38:52.712Z,5.75
2017-12-08T08:41:20.295Z,7.65
2017-12-08T08:43:47.887Z,10.82
2017-12-08T08:46:15.548Z,5.35
2017-12-08T08:48:43.219Z,5.62
2017-12-08T08:51:10.804Z,3.50
2017-12-08T08:53:38.443Z,3.80
2017-12-08T08:56:06.176Z,2.60
2017-12-08T08:58:33.756Z,4.90
2017-12-08T09:01:01.339Z,2.67
2017-12-08T09:03:28.916Z,2.90
2017-12-08T09:05:56.561Z,3.15
2017-12-08T09:08:24.220Z,2.85
2017-12-08T09:10:51.805Z,3.08
2017-12-08T09:13:19.377Z,3.50
2017-12-08T09:15:47.003Z,3.30
2017-12-08T09:18:14.570Z,2.90
2017-12-08T09:20:42.155Z,3.42
2017-12-08T09:23:09.728Z,2.70
2017-12-08T09:25:37.322Z,2.70
2017-12-08T09:28:04.896Z,2.75
2017-12-08T09:30:32.566Z,3.97
2017-12-08T09:33:00.250Z,2.60
2017-12-08T09:35:27.911Z,3.20
2017-12-08T09:37:55.604Z,2.95
2017-12-08T09:40:23.192Z,2.60
2017-12-08T09:42:50.768Z,2.28
2017-12-08T09:45:18.469Z,2.60
2017-12-08T09:47:46.047Z,2.30
2017-12-08T09:50:13.684Z,2.37
2017-12-08T09:52:41.264Z,2.75
2017-12-08T09:55:08.906Z,2.78
2017-12-08T09:57:36.497Z,2.33
2017-12-08T10:00:04.068Z,1.95
2017-12-08T10:02:31.699Z,2.80
2017-12-08T10:04:59.271Z,2.58
2017-12-08T10:07:26.857Z,2.97
2017-12-08T10:09:54.485Z,3.37
2017-12-08T10:12:22.143Z,3.47
2017-12-08T10:14:49.711Z,4.47
2017-12-08T10:17:17.292Z,3.30
2017-12-08T10:19:44.931Z,4.10
2017-12-08T10:22:12.511Z,7.15
2017-12-08T10:24:40.081Z,4.62
2017-12-08T10:27:07.773Z,3.80
2017-12-08T10:29:35.383Z,4.55
2017-12-08T10:32:03.047Z,4.12
2017-12-08T10:34:30.611Z,5.00
2017-12-08T10:36:58.203Z,3.75
2017-12-08T10:39:25.838Z,3.33
2017-12-08T10:41:53.503Z,4.30
2017-12-08T10:44:21.083Z,3.80
2017-12-08T10:46:48.655Z,4.18
2017-12-08T10:49:16.287Z,6.85
2017-12-08T10:51:43.851Z,3.75
2017-12-08T10:54:11.436Z,3.70
2017-12-08T10:56:39.012Z,6.03
2017-12-08T10:59:06.595Z,3.70
2017-12-08T11:01:34.201Z,3.25
2017-12-08T11:04:01.810Z,4.10
2017-12-08T11:06:29.379Z,3.00
2017-12-08T11:08:56.977Z,2.75
2017-12-08T11:11:24.543Z,2.72
2017-12-08T11:13:52.129Z,3.62
2017-12-08T11:16:19.767Z,3.22
2017-12-08T11:18:47.449Z,4.10
2017-12-08T11:21:15.104Z,3.03
2017-12-08T11:23:42.689Z,3.60
2017-12-08T11:26:10.265Z,3.65
2017-12-08T11:28:37.887Z,4.03
2017-12-08T11:31:05.558Z,3.75
2017-12-08T11:33:33.212Z,3.47
2017-12-08T11:36:00.879Z,3.65
2017-12-08T11:38:28.539Z,3.80
2017-12-08T11:40:56.228Z,4.43
2017-12-08T11:43:23.796Z,4.05
2017-12-08T11:45:51.431Z,4.20
2017-12-08T11:48:18.995Z,4.40
2017-12-08T11:50:46.576Z,4.20
2017-12-08T11:53:14.224Z,4.70
2017-12-08T11:55:41.807Z,7.05
2017-12-08T11:58:09.445Z,4.37
2017-12-08T12:00:37.023Z,4.10
2017-12-08T12:03:04.596Z,3.92
2017-12-08T12:05:32.187Z,4.35
2017-12-08T12:07:59.764Z,3.90
2017-12-08T12:10:27.456Z,3.95
2017-12-08T12:15:28.299Z,3.60
2017-12-08T12:17:55.868Z,3.80
2017-12-08T12:20:23.442Z,4.78
2017-12-08T12:22:51.010Z,5.00
2017-12-08T12:25:18.659Z,3.87
2017-12-08T12:27:46.231Z,4.10
2017-12-08T12:30:13.883Z,6.18
2017-12-08T12:32:41.549Z,5.22
2017-12-08T12:35:09.135Z,7.12
2017-12-08T12:37:36.771Z,9.82
2017-12-08T12:40:04.451Z,8.45
2017-12-08T12:42:32.022Z,9.25
2017-12-08T12:44:59.664Z,11.77
2017-12-08T12:47:27.332Z,5.95
2017-12-08T12:49:54.983Z,5.75
2017-12-08T12:52:22.607Z,8.65
2017-12-08T12:54:50.215Z,8.02
2017-12-08T12:57:17.885Z,5.35
2017-12-08T12:59:45.475Z,7.72
2017-12-08T13:02:13.107Z,7.35
2017-12-08T13:04:40.680Z,6.20
2017-12-08T13:07:08.341Z,6.12
2017-12-08T13:09:36.006Z,8.15
2017-12-08T13:12:03.593Z,6.62
2017-12-08T13:14:31.169Z,7.72
2017-12-08T13:16:58.785Z,7.60
2017-12-08T13:19:26.370Z,9.82
2017-12-08T13:21:53.964Z,8.25
2017-12-08T13:24:21.535Z,8.45
2017-12-08T13:26:49.114Z,8.93
2017-12-08T13:29:16.688Z,7.57
2017-12-08T13:31:44.263Z,7.32
2017-12-08T13:34:11.921Z,9.93
2017-12-08T13:36:39.579Z,6.60
2017-12-08T13:39:07.244Z,6.10
2017-12-08T13:41:34.840Z,7.20
2017-12-08T13:44:02.421Z,6.72
2017-12-08T13:46:30.000Z,7.20
2017-12-08T13:48:57.586Z,7.43
2017-12-08T13:51:25.159Z,7.78
2017-12-08T13:54:04.483Z,7.43
2017-12-08T13:56:43.827Z,9.55
2017-12-08T13:59:11.491Z,9.52
2017-12-08T14:01:39.068Z,9.00
2017-12-08T14:04:06.719Z,11.15
2017-12-08T14:06:34.383Z,7.85
2017-12-08T14:09:01.972Z,9.02
2017-12-08T14:11:29.539Z,9.77
2017-12-08T14:13:57.123Z,9.35
2017-12-08T14:16:24.696Z,8.93
2017-12-08T14:18:52.279Z,9.90
2017-12-08T14:21:19.968Z,10.63
2017-12-08T14:23:47.623Z,8.20
2017-12-08T14:26:15.197Z,7.97
2017-12-08T14:28:42.843Z,8.15
2017-12-08T14:31:10.507Z,8.15
2017-12-08T14:33:38.083Z,6.95
2017-12-08T14:36:05.663Z,8.95
2017-12-08T14:38:33.306Z,9.80
2017-12-08T14:41:00.965Z,12.63
2017-12-08T14:43:28.626Z,11.27
2017-12-08T14:45:56.208Z,8.85
2017-12-08T14:48:23.774Z,8.82
2017-12-08T14:50:51.355Z,10.68
2017-12-08T14:53:18.928Z,49.05
2017-12-08T14:55:46.544Z,7.93
2017-12-08T14:58:14.111Z,9.05
2017-12-08T15:00:41.696Z,10.57
2017-12-08T15:03:09.329Z,11.27
2017-12-08T15:05:36.912Z,13.85
2017-12-08T15:08:04.494Z,11.40
2017-12-08T15:10:32.112Z,13.45
2017-12-08T15:12:59.783Z,10.65
2017-12-08T15:15:27.376Z,10.95
2017-12-08T15:17:54.954Z,10.43
2017-12-08T15:20:22.536Z,13.35
2017-12-08T15:22:50.108Z,11.48
2017-12-08T15:25:17.712Z,13.20
2017-12-08T15:27:45.352Z,14.20
2017-12-08T15:30:12.923Z,9.38
2017-12-08T15:32:40.508Z,10.88
2017-12-08T15:35:08.086Z,11.35
2017-12-08T15:37:35.711Z,17.17
2017-12-08T15:40:03.360Z,11.27
2017-12-08T15:42:30.943Z,10.30
2017-12-08T15:44:58.530Z,11.25
2017-12-08T15:47:26.143Z,8.07
2017-12-08T15:49:53.715Z,14.68
2017-12-08T15:52:21.308Z,8.30
2017-12-08T15:54:48.887Z,12.02
2017-12-08T15:57:16.479Z,14.20
2017-12-08T15:59:44.157Z,10.10
2017-12-08T16:02:11.872Z,11.60
2017-12-08T16:04:41.106Z,9.43
2017-12-08T16:07:08.788Z,16.05
2017-12-08T16:09:36.447Z,17.95
2017-12-08T16:12:04.124Z,10.07
2017-12-08T16:14:31.780Z,15.38
2017-12-08T16:16:59.364Z,8.00
2017-12-08T16:19:27.004Z,10.48
2017-12-08T16:21:54.664Z,6.70
2017-12-08T16:24:22.343Z,10.07
2017-12-08T16:26:49.996Z,11.60
2017-12-08T16:29:17.659Z,12.50
2017-12-08T16:31:45.239Z,12.02
2017-12-08T16:34:12.893Z,12.50
2017-12-08T16:36:40.548Z,13.27
2017-12-08T16:39:08.128Z,9.80
2017-12-08T16:41:35.777Z,18.35
2017-12-08T16:44:03.448Z,12.90
2017-12-08T16:46:31.024Z,14.63
2017-12-08T16:48:58.607Z,14.00
2017-12-08T16:51:26.184Z,12.40
2017-12-08T16:53:53.768Z,15.65
2017-12-08T16:56:21.341Z,19.12
2017-12-08T16:58:49.012Z,15.05
2017-12-08T17:01:16.675Z,17.48
2017-12-08T17:03:44.264Z,15.90
2017-12-08T17:06:11.835Z,14.35
2017-12-08T17:08:39.524Z,15.48
2017-12-08T17:11:07.128Z,22.60
2017-12-08T17:13:34.791Z,21.42
2017-12-08T17:16:02.375Z,18.37
2017-12-08T17:18:29.983Z,20.48
2017-12-08T17:20:57.620Z,16.73
2017-12-08T17:23:25.213Z,18.80
2017-12-08T17:25:52.851Z,15.02
2017-12-08T17:28:20.499Z,20.15
2017-12-08T17:30:48.127Z,20.85
2017-12-08T17:33:15.800Z,21.70
2017-12-08T17:35:43.396Z,24.80
2017-12-08T17:38:10.988Z,17.55
2017-12-08T17:40:38.592Z,20.70
2017-12-08T17:43:06.244Z,25.50
2017-12-08T17:45:33.845Z,19.85
2017-12-08T17:48:01.445Z,24.58
2017-12-08T17:50:29.057Z,21.08
2017-12-08T17:52:56.648Z,18.80
2017-12-08T17:55:24.250Z,24.55
2017-12-08T17:57:51.915Z,14.60
2017-12-08T18:00:19.507Z,23.48
2017-12-08T18:02:47.088Z,19.80
2017-12-08T18:05:14.703Z,21.77
2017-12-08T18:07:42.371Z,22.30
2017-12-08T18:10:09.967Z,18.35
2017-12-08T18:12:37.622Z,18.90
2017-12-08T18:15:05.281Z,20.75
2017-12-08T18:17:32.903Z,19.10
2017-12-08T18:20:00.507Z,17.62
2017-12-08T18:22:28.167Z,25.90
2017-12-08T18:24:55.748Z,18.80
2017-12-08T18:27:23.337Z,19.23
2017-12-08T18:29:50.940Z,15.23
2017-12-08T18:32:18.600Z,19.75
2017-12-08T18:34:46.182Z,18.30
2017-12-08T18:37:13.777Z,13.52
2017-12-08T18:39:41.369Z,19.87
2017-12-08T18:42:09.048Z,17.27
2017-12-08T18:44:36.719Z,14.77
2017-12-08T18:47:04.317Z,15.88
2017-12-08T18:49:31.908Z,17.17
2017-12-08T18:51:59.508Z,14.73
2017-12-08T18:54:27.083Z,15.05
2017-12-08T18:56:54.712Z,14.50
2017-12-08T18:59:22.314Z,16.75
2017-12-08T19:01:49.905Z,16.70
2017-12-08T19:04:17.515Z,20.77
2017-12-08T19:06:45.113Z,15.13
2017-12-08T19:09:12.705Z,16.37
2017-12-08T19:11:40.399Z,17.80
2017-12-08T19:14:07.976Z,20.15
2017-12-08T19:16:35.619Z,18.58
2017-12-08T19:19:03.208Z,18.52
2017-12-08T19:21:30.858Z,15.82
2017-12-08T19:23:58.649Z,23.23
2017-12-08T19:26:26.284Z,15.32
2017-12-08T19:28:53.952Z,20.60
2017-12-08T19:31:21.619Z,20.40
2017-12-08T19:33:49.210Z,25.58
2017-12-08T19:36:16.801Z,27.77
2017-12-08T19:38:44.506Z,22.25
2017-12-08T19:41:12.086Z,24.87
2017-12-08T19:43:39.825Z,14.55
2017-12-08T19:46:07.495Z,18.67
2017-12-08T19:48:35.257Z,19.27
2017-12-08T19:51:02.928Z,21.15
2017-12-08T19:53:30.508Z,13.27
2017-12-08T19:55:58.271Z,23.67
2017-12-08T19:58:25.863Z,15.35
2017-12-08T20:00:53.459Z,16.98
2017-12-08T20:03:21.043Z,15.18
2017-12-08T20:05:48.628Z,14.15
2017-12-08T20:08:16.218Z,14.30
2017-12-08T20:10:43.803Z,16.12
2017-12-08T20:13:11.384Z,12.98
2017-12-08T20:15:38.977Z,13.15
2017-12-08T20:18:06.612Z,13.62
2017-12-08T20:20:34.203Z,8.93
2017-12-08T20:23:01.791Z,8.98
2017-12-08T20:25:29.401Z,9.57
2017-12-08T20:27:57.000Z,9.90
2017-12-08T20:30:24.617Z,6.18
2017-12-08T20:32:52.290Z,7.53
2017-12-08T20:35:19.872Z,9.00
2017-12-08T20:37:47.594Z,11.25
2017-12-08T20:40:15.176Z,9.43
2017-12-08T20:42:42.846Z,11.73
2017-12-08T20:45:10.512Z,10.93
2017-12-08T20:47:38.163Z,10.32
2017-12-08T20:50:05.828Z,11.43
2017-12-08T20:52:33.419Z,16.33
2017-12-08T20:55:01.059Z,12.15
2017-12-08T20:57:28.660Z,13.73
2017-12-08T20:59:56.239Z,11.82
2017-12-08T21:02:23.944Z,13.35
2017-12-08T21:04:51.520Z,11.52
2017-12-08T21:07:19.173Z,14.87
2017-12-08T21:09:46.755Z,12.80
2017-12-08T21:12:14.387Z,9.88
2017-12-08T21:14:41.960Z,9.50
2017-12-08T21:17:09.536Z,8.90
2017-12-08T21:19:37.136Z,10.75
2017-12-08T21:22:04.711Z,8.88
2017-12-08T21:24:32.287Z,9.88
2017-12-08T21:26:59.859Z,8.70
2017-12-08T21:29:27.447Z,10.07
2017-12-08T21:31:55.089Z,11.48
2017-12-08T21:34:22.757Z,9.38
2017-12-08T21:36:50.416Z,10.85
2017-12-08T21:39:18.006Z,12.88
2017-12-08T21:41:45.596Z,12.20
2017-12-08T21:44:13.209Z,11.52
2017-12-08T21:46:40.870Z,11.40
2017-12-08T21:49:08.459Z,11.40
2017-12-08T21:51:36.097Z,13.57
2017-12-08T21:54:03.687Z,13.35
2017-12-08T21:56:31.420Z,14.68
2017-12-08T21:58:59.093Z,16.40
2017-12-08T22:01:26.684Z,14.50
2017-12-08T22:03:54.317Z,13.23
2017-12-08T22:06:21.899Z,13.95
2017-12-08T22:08:49.489Z,13.70
2017-12-08T22:11:17.079Z,13.38
2017-12-08T22:13:44.754Z,13.82
2017-12-08T22:16:12.424Z,13.52
2017-12-08T22:18:40.049Z,14.98
2017-12-08T22:21:07.757Z,14.85
2017-12-08T22:23:35.344Z,14.35
2017-12-08T22:26:02.967Z,14.07
2017-12-08T22:28:30.620Z,14.43
2017-12-08T22:30:58.182Z,16.05
2017-12-08T22:33:25.774Z,13.82
2017-12-08T22:35:53.376Z,14.10
2017-12-08T22:38:20.964Z,14.23
2017-12-08T22:40:48.559Z,15.02
2017-12-08T22:43:16.147Z,13.75
2017-12-08T22:45:43.750Z,15.60
2017-12-08T22:48:11.331Z,15.68
2017-12-08T22:50:38.925Z,17.90
2017-12-08T22:53:06.507Z,15.73
2017-12-08T22:55:34.116Z,14.63
2017-12-08T22:58:01.703Z,17.55
2017-12-08T23:00:29.294Z,16.02
2017-12-08T23:02:56.899Z,20.60
2017-12-08T23:05:24.490Z,16.37
2017-12-08T23:07:52.088Z,16.90
2017-12-08T23:10:19.685Z,16.50
2017-12-08T23:12:47.287Z,16.20
2017-12-08T23:15:14.897Z,17.17
2017-12-08T23:17:42.500Z,20.75
2017-12-08T23:20:10.093Z,19.12
2017-12-08T23:22:37.697Z,18.20
2017-12-08T23:25:05.280Z,20.98
2017-12-08T23:27:32.871Z,18.42
2017-12-08T23:30:00.463Z,17.83
2017-12-08T23:32:28.061Z,18.20
2017-12-08T23:34:55.643Z,21.33
2017-12-08T23:37:23.284Z,21.55
2017-12-08T23:39:50.866Z,18.33
2017-12-08T23:42:18.517Z,18.92
2017-12-08T23:44:46.095Z,20.05
2017-12-08T23:47:13.717Z,20.10
2017-12-08T23:49:41.400Z,20.15
2017-12-08T23:52:08.996Z,19.65
2017-12-08T23:54:36.598Z,19.98
2017-12-08T23:57:04.288Z,20.37
2017-12-08T23:59:31.948Z,20.62
